sensor_id;sensor_type;location;lat;lon;timestamp;temperature;humidity
57892;DHT22;43708;48.828;9.166;2023-05-10T00:01:55;21.20;99.90
57892;DHT22;43708;48.828;9.166;2023-05-10T00:04:21;21.20;99.90
57892;DHT22;43708;48.828;9.166;2023-05-10T00:06:46;21.20;99.90
57892;DHT22;43708;48.828;9.166;2023-05-10T00:09:12;21.20;99.90
57892;DHT22;43708;48.828;9.166;2023-05-10T00:11:38;21.20;99.90
57892;DHT22;43708;48.828;9.166;2023-05-10T00:14:03;21.20;99.90
57892;DHT22;43708;48.828;9.166;2023-05-10T00:16:29;21.20;99.90
57892;DHT22;43708;48.828;9.166;2023-05-10T00:18:54;21.20;99.90
57892;DHT22;43708;48.828;9.166;2023-05-10T00:21:20;21.20;99.90
57892;DHT22;43708;48.828;9.166;2023-05-10T00:23:46;21.20;99.90
57892;DHT22;43708;48.828;9.166;2023-05-10T00:26:11;21.20;99.90
57892;DHT22;43708;48.828;9.166;2023-05-10T00:28:37;21.20;99.90
57892;DHT22;43708;48.828;9.166;2023-05-10T00:31:02;21.20;99.90
57892;DHT22;43708;48.828;9.166;2023-05-10T00:33:28;21.20;99.90
57892;DHT22;43708;48.828;9.166;2023-05-10T00:35:53;21.20;99.90
57892;DHT22;43708;48.828;9.166;2023-05-10T00:38:19;21.20;99.90
57892;DHT22;43708;48.828;9.166;2023-05-10T00:40:44;21.20;99.90
57892;DHT22;43708;48.828;9.166;2023-05-10T00:43:10;21.20;99.90
57892;DHT22;43708;48.828;9.166;2023-05-10T00:45:36;21.20;99.90
57892;DHT22;43708;48.828;9.166;2023-05-10T00:48:02;21.20;99.90
57892;DHT22;43708;48.828;9.166;2023-05-10T00:50:29;21.20;99.90
57892;DHT22;43708;48.828;9.166;2023-05-10T00:52:56;21.20;99.90
57892;DHT22;43708;48.828;9.166;2023-05-10T00:55:23;21.20;99.90
57892;DHT22;43708;48.828;9.166;2023-05-10T00:57:49;21.20;99.90
57892;DHT22;43708;48.828;9.166;2023-05-10T01:00:14;21.10;99.90
57892;DHT22;43708;48.828;9.166;2023-05-10T01:02:44;21.20;99.90
57892;DHT22;43708;48.828;9.166;2023-05-10T01:05:10;21.20;99.90
57892;DHT22;43708;48.828;9.166;2023-05-10T01:07:36;21.10;99.90
57892;DHT22;43708;48.828;9.166;2023-05-10T01:10:01;21.10;99.90
57892;DHT22;43708;48.828;9.166;2023-05-10T01:12:27;21.10;99.90
57892;DHT22;43708;48.828;9.166;2023-05-10T01:14:53;21.10;99.90
57892;DHT22;43708;48.828;9.166;2023-05-10T01:17:20;21.10;99.90
57892;DHT22;43708;48.828;9.166;2023-05-10T01:19:47;21.10;99.90
57892;DHT22;43708;48.828;9.166;2023-05-10T01:22:30;21.10;99.90
57892;DHT22;43708;48.828;9.166;2023-05-10T01:25:24;21.10;99.90
57892;DHT22;43708;48.828;9.166;2023-05-10T01:28:06;21.10;99.90
57892;DHT22;43708;48.828;9.166;2023-05-10T01:31:00;21.10;99.90
57892;DHT22;43708;48.828;9.166;2023-05-10T01:33:39;21.10;99.90
57892;DHT22;43708;48.828;9.166;2023-05-10T01:36:32;21.10;99.90
57892;DHT22;43708;48.828;9.166;2023-05-10T01:39:02;21.10;99.90
57892;DHT22;43708;48.828;9.166;2023-05-10T01:45:07;21.10;99.90
57892;DHT22;43708;48.828;9.166;2023-05-10T01:47:40;21.10;99.90
57892;DHT22;43708;48.828;9.166;2023-05-10T01:50:10;21.10;99.90
57892;DHT22;43708;48.828;9.166;2023-05-10T01:52:46;21.10;99.90
57892;DHT22;43708;48.828;9.166;2023-05-10T01:55:15;21.00;99.90
57892;DHT22;43708;48.828;9.166;2023-05-10T01:57:44;21.10;99.90
57892;DHT22;43708;48.828;9.166;2023-05-10T02:00:10;21.10;99.90
57892;DHT22;43708;48.828;9.166;2023-05-10T02:02:39;21.10;99.90
57892;DHT22;43708;48.828;9.166;2023-05-10T02:05:06;21.10;99.90
57892;DHT22;43708;48.828;9.166;2023-05-10T02:07:35;21.10;99.90
57892;DHT22;43708;48.828;9.166;2023-05-10T02:10:04;21.10;99.90
57892;DHT22;43708;48.828;9.166;2023-05-10T02:12:31;21.10;99.90
57892;DHT22;43708;48.828;9.166;2023-05-10T02:14:59;21.10;99.90
57892;DHT22;43708;48.828;9.166;2023-05-10T02:17:27;21.10;99.90
57892;DHT22;43708;48.828;9.166;2023-05-10T02:19:55;21.10;99.90
57892;DHT22;43708;48.828;9.166;2023-05-10T02:22:22;21.10;99.90
57892;DHT22;43708;48.828;9.166;2023-05-10T02:24:49;21.10;99.90
57892;DHT22;43708;48.828;9.166;2023-05-10T02:27:17;21.00;99.90
57892;DHT22;43708;48.828;9.166;2023-05-10T02:29:43;21.10;99.90
57892;DHT22;43708;48.828;9.166;2023-05-10T02:32:10;21.10;99.90
57892;DHT22;43708;48.828;9.166;2023-05-10T02:34:37;21.00;99.90
57892;DHT22;43708;48.828;9.166;2023-05-10T02:37:03;21.00;99.90
57892;DHT22;43708;48.828;9.166;2023-05-10T02:39:31;21.00;99.90
57892;DHT22;43708;48.828;9.166;2023-05-10T02:41:57;21.00;99.90
57892;DHT22;43708;48.828;9.166;2023-05-10T02:44:23;21.00;99.90
57892;DHT22;43708;48.828;9.166;2023-05-10T02:46:52;21.10;99.90
57892;DHT22;43708;48.828;9.166;2023-05-10T02:49:18;21.00;99.90
57892;DHT22;43708;48.828;9.166;2023-05-10T02:51:49;21.00;99.90
57892;DHT22;43708;48.828;9.166;2023-05-10T02:54:20;21.00;99.90
57892;DHT22;43708;48.828;9.166;2023-05-10T02:56:56;21.00;99.90
57892;DHT22;43708;48.828;9.166;2023-05-10T02:59:22;21.00;99.90
57892;DHT22;43708;48.828;9.166;2023-05-10T03:01:48;21.00;99.90
57892;DHT22;43708;48.828;9.166;2023-05-10T03:04:14;21.00;99.90
57892;DHT22;43708;48.828;9.166;2023-05-10T03:06:39;21.00;99.90
57892;DHT22;43708;48.828;9.166;2023-05-10T03:09:05;21.00;99.90
57892;DHT22;43708;48.828;9.166;2023-05-10T03:16:56;21.00;99.90
57892;DHT22;43708;48.828;9.166;2023-05-10T03:21:50;21.00;99.90
57892;DHT22;43708;48.828;9.166;2023-05-10T03:24:18;21.00;99.90
57892;DHT22;43708;48.828;9.166;2023-05-10T03:26:46;21.00;99.90
57892;DHT22;43708;48.828;9.166;2023-05-10T03:29:13;21.00;99.90
57892;DHT22;43708;48.828;9.166;2023-05-10T03:31:39;21.00;99.90
57892;DHT22;43708;48.828;9.166;2023-05-10T03:34:05;21.00;99.90
57892;DHT22;43708;48.828;9.166;2023-05-10T03:36:31;21.00;99.90
57892;DHT22;43708;48.828;9.166;2023-05-10T03:38:57;21.00;99.90
57892;DHT22;43708;48.828;9.166;2023-05-10T03:41:22;21.00;99.90
57892;DHT22;43708;48.828;9.166;2023-05-10T03:43:48;21.00;99.90
57892;DHT22;43708;48.828;9.166;2023-05-10T03:46:13;21.00;99.90
57892;DHT22;43708;48.828;9.166;2023-05-10T03:48:39;21.00;99.90
57892;DHT22;43708;48.828;9.166;2023-05-10T03:51:04;21.00;99.90
57892;DHT22;43708;48.828;9.166;2023-05-10T03:53:30;21.00;99.90
57892;DHT22;43708;48.828;9.166;2023-05-10T03:55:56;20.60;99.90
57892;DHT22;43708;48.828;9.166;2023-05-10T03:58:21;20.20;99.90
57892;DHT22;43708;48.828;9.166;2023-05-10T04:00:47;19.80;99.90
57892;DHT22;43708;48.828;9.166;2023-05-10T04:03:13;19.40;99.90
57892;DHT22;43708;48.828;9.166;2023-05-10T04:05:39;19.30;99.90
57892;DHT22;43708;48.828;9.166;2023-05-10T04:08:05;19.10;99.90
57892;DHT22;43708;48.828;9.166;2023-05-10T04:10:31;19.00;99.90
57892;DHT22;43708;48.828;9.166;2023-05-10T04:12:56;19.00;99.90
57892;DHT22;43708;48.828;9.166;2023-05-10T04:15:22;18.90;99.90
57892;DHT22;43708;48.828;9.166;2023-05-10T04:17:48;18.90;99.90
57892;DHT22;43708;48.828;9.166;2023-05-10T04:20:13;18.90;99.90
57892;DHT22;43708;48.828;9.166;2023-05-10T04:22:39;19.10;99.90
57892;DHT22;43708;48.828;9.166;2023-05-10T04:25:05;19.40;99.90
57892;DHT22;43708;48.828;9.166;2023-05-10T04:27:31;19.70;99.90
57892;DHT22;43708;48.828;9.166;2023-05-10T04:29:57;20.00;99.90
57892;DHT22;43708;48.828;9.166;2023-05-10T04:32:23;20.20;99.90
57892;DHT22;43708;48.828;9.166;2023-05-10T04:34:48;20.30;99.90
57892;DHT22;43708;48.828;9.166;2023-05-10T04:37:14;20.40;99.90
57892;DHT22;43708;48.828;9.166;2023-05-10T04:39:40;20.50;99.90
57892;DHT22;43708;48.828;9.166;2023-05-10T04:42:05;20.60;99.90
57892;DHT22;43708;48.828;9.166;2023-05-10T04:44:32;20.60;99.90
57892;DHT22;43708;48.828;9.166;2023-05-10T04:46:58;20.70;99.90
57892;DHT22;43708;48.828;9.166;2023-05-10T04:49:23;20.70;99.90
57892;DHT22;43708;48.828;9.166;2023-05-10T04:51:49;20.70;99.90
57892;DHT22;43708;48.828;9.166;2023-05-10T04:54:15;20.70;99.90
57892;DHT22;43708;48.828;9.166;2023-05-10T04:56:40;20.70;99.90
57892;DHT22;43708;48.828;9.166;2023-05-10T04:59:06;20.70;99.90
57892;DHT22;43708;48.828;9.166;2023-05-10T05:01:32;20.80;99.90
57892;DHT22;43708;48.828;9.166;2023-05-10T05:03:58;20.80;99.90
57892;DHT22;43708;48.828;9.166;2023-05-10T05:06:24;20.80;99.90
57892;DHT22;43708;48.828;9.166;2023-05-10T05:08:50;20.80;99.90
57892;DHT22;43708;48.828;9.166;2023-05-10T05:11:19;20.80;99.90
57892;DHT22;43708;48.828;9.166;2023-05-10T05:13:44;20.80;99.90
57892;DHT22;43708;48.828;9.166;2023-05-10T05:16:10;20.80;99.90
57892;DHT22;43708;48.828;9.166;2023-05-10T05:18:36;20.80;99.90
57892;DHT22;43708;48.828;9.166;2023-05-10T05:21:02;20.80;99.90
57892;DHT22;43708;48.828;9.166;2023-05-10T05:23:27;20.80;99.90
57892;DHT22;43708;48.828;9.166;2023-05-10T05:25:53;20.80;99.90
57892;DHT22;43708;48.828;9.166;2023-05-10T05:28:19;20.80;99.90
57892;DHT22;43708;48.828;9.166;2023-05-10T05:30:45;20.80;99.90
57892;DHT22;43708;48.828;9.166;2023-05-10T05:33:10;20.80;99.90
57892;DHT22;43708;48.828;9.166;2023-05-10T05:35:36;20.80;99.90
57892;DHT22;43708;48.828;9.166;2023-05-10T05:38:02;20.80;99.90
57892;DHT22;43708;48.828;9.166;2023-05-10T05:40:28;20.80;99.90
57892;DHT22;43708;48.828;9.166;2023-05-10T05:42:53;20.80;99.90
57892;DHT22;43708;48.828;9.166;2023-05-10T05:45:19;20.90;99.90
57892;DHT22;43708;48.828;9.166;2023-05-10T05:47:44;20.90;99.90
57892;DHT22;43708;48.828;9.166;2023-05-10T05:50:10;20.90;99.90
57892;DHT22;43708;48.828;9.166;2023-05-10T05:52:36;20.90;99.90
57892;DHT22;43708;48.828;9.166;2023-05-10T05:55:01;20.90;99.90
57892;DHT22;43708;48.828;9.166;2023-05-10T05:57:27;20.90;99.90
57892;DHT22;43708;48.828;9.166;2023-05-10T05:59:54;20.90;99.90
57892;DHT22;43708;48.828;9.166;2023-05-10T06:02:20;20.90;99.90
57892;DHT22;43708;48.828;9.166;2023-05-10T06:04:45;20.90;99.90
57892;DHT22;43708;48.828;9.166;2023-05-10T06:07:11;20.90;99.90
57892;DHT22;43708;48.828;9.166;2023-05-10T06:09:37;20.90;99.90
57892;DHT22;43708;48.828;9.166;2023-05-10T06:12:03;20.90;99.90
57892;DHT22;43708;48.828;9.166;2023-05-10T06:14:28;20.90;99.90
57892;DHT22;43708;48.828;9.166;2023-05-10T06:16:54;20.90;99.90
57892;DHT22;43708;48.828;9.166;2023-05-10T06:19:20;20.90;99.90
57892;DHT22;43708;48.828;9.166;2023-05-10T06:21:45;20.90;99.90
57892;DHT22;43708;48.828;9.166;2023-05-10T06:24:11;20.90;99.90
57892;DHT22;43708;48.828;9.166;2023-05-10T06:26:36;20.90;99.90
57892;DHT22;43708;48.828;9.166;2023-05-10T06:29:02;20.90;99.90
57892;DHT22;43708;48.828;9.166;2023-05-10T06:31:27;21.00;99.90
57892;DHT22;43708;48.828;9.166;2023-05-10T06:33:53;21.00;99.90
57892;DHT22;43708;48.828;9.166;2023-05-10T06:36:18;21.00;99.90
57892;DHT22;43708;48.828;9.166;2023-05-10T06:38:44;20.90;99.90
57892;DHT22;43708;48.828;9.166;2023-05-10T06:41:10;21.00;99.90
57892;DHT22;43708;48.828;9.166;2023-05-10T06:43:35;21.00;99.90
57892;DHT22;43708;48.828;9.166;2023-05-10T06:46:02;21.00;99.90
57892;DHT22;43708;48.828;9.166;2023-05-10T06:48:27;21.00;99.90
57892;DHT22;43708;48.828;9.166;2023-05-10T06:50:53;21.00;99.90
57892;DHT22;43708;48.828;9.166;2023-05-10T06:53:19;21.00;99.90
57892;DHT22;43708;48.828;9.166;2023-05-10T06:55:44;21.00;99.90
57892;DHT22;43708;48.828;9.166;2023-05-10T06:58:10;21.00;99.90
57892;DHT22;43708;48.828;9.166;2023-05-10T07:00:35;21.00;99.90
57892;DHT22;43708;48.828;9.166;2023-05-10T07:03:05;21.00;99.90
57892;DHT22;43708;48.828;9.166;2023-05-10T07:05:31;21.00;99.90
57892;DHT22;43708;48.828;9.166;2023-05-10T07:07:57;21.00;99.90
57892;DHT22;43708;48.828;9.166;2023-05-10T07:10:22;21.00;99.90
57892;DHT22;43708;48.828;9.166;2023-05-10T07:12:48;21.00;99.90
57892;DHT22;43708;48.828;9.166;2023-05-10T07:15:13;21.00;99.90
57892;DHT22;43708;48.828;9.166;2023-05-10T07:17:39;21.00;99.90
57892;DHT22;43708;48.828;9.166;2023-05-10T07:20:05;21.00;99.90
57892;DHT22;43708;48.828;9.166;2023-05-10T07:22:31;21.00;99.90
57892;DHT22;43708;48.828;9.166;2023-05-10T07:24:57;21.00;99.90
57892;DHT22;43708;48.828;9.166;2023-05-10T07:27:22;21.00;99.90
57892;DHT22;43708;48.828;9.166;2023-05-10T07:29:48;21.00;99.90
57892;DHT22;43708;48.828;9.166;2023-05-10T07:32:13;21.00;99.90
57892;DHT22;43708;48.828;9.166;2023-05-10T07:34:39;21.00;99.90
57892;DHT22;43708;48.828;9.166;2023-05-10T07:37:05;21.10;99.90
57892;DHT22;43708;48.828;9.166;2023-05-10T07:39:31;21.00;99.90
57892;DHT22;43708;48.828;9.166;2023-05-10T07:41:57;21.00;99.90
57892;DHT22;43708;48.828;9.166;2023-05-10T07:44:23;21.00;99.90
57892;DHT22;43708;48.828;9.166;2023-05-10T07:46:48;21.00;99.90
57892;DHT22;43708;48.828;9.166;2023-05-10T07:49:14;21.00;99.90
57892;DHT22;43708;48.828;9.166;2023-05-10T07:51:40;21.00;99.90
57892;DHT22;43708;48.828;9.166;2023-05-10T07:54:05;21.00;99.90
57892;DHT22;43708;48.828;9.166;2023-05-10T07:56:32;20.90;99.90
57892;DHT22;43708;48.828;9.166;2023-05-10T07:59:02;20.90;99.90
57892;DHT22;43708;48.828;9.166;2023-05-10T08:01:33;20.90;99.90
57892;DHT22;43708;48.828;9.166;2023-05-10T08:04:00;20.90;99.90
57892;DHT22;43708;48.828;9.166;2023-05-10T08:06:26;20.80;99.90
57892;DHT22;43708;48.828;9.166;2023-05-10T08:08:53;20.70;99.90
57892;DHT22;43708;48.828;9.166;2023-05-10T08:11:22;20.70;99.90
57892;DHT22;43708;48.828;9.166;2023-05-10T08:13:49;20.70;99.90
57892;DHT22;43708;48.828;9.166;2023-05-10T08:16:15;20.70;99.90
57892;DHT22;43708;48.828;9.166;2023-05-10T08:18:41;20.70;99.90
57892;DHT22;43708;48.828;9.166;2023-05-10T08:21:07;20.70;99.90
57892;DHT22;43708;48.828;9.166;2023-05-10T08:23:33;20.60;99.90
57892;DHT22;43708;48.828;9.166;2023-05-10T08:25:59;20.60;99.90
57892;DHT22;43708;48.828;9.166;2023-05-10T08:28:24;20.60;99.90
57892;DHT22;43708;48.828;9.166;2023-05-10T08:30:50;20.60;99.90
57892;DHT22;43708;48.828;9.166;2023-05-10T08:33:18;20.60;99.90
57892;DHT22;43708;48.828;9.166;2023-05-10T08:35:43;20.60;99.90
57892;DHT22;43708;48.828;9.166;2023-05-10T08:38:09;20.60;99.90
57892;DHT22;43708;48.828;9.166;2023-05-10T08:40:41;20.60;99.90
57892;DHT22;43708;48.828;9.166;2023-05-10T08:43:09;20.70;99.90
57892;DHT22;43708;48.828;9.166;2023-05-10T08:45:39;20.60;99.90
57892;DHT22;43708;48.828;9.166;2023-05-10T08:48:06;20.60;99.90
57892;DHT22;43708;48.828;9.166;2023-05-10T08:50:36;20.60;99.90
57892;DHT22;43708;48.828;9.166;2023-05-10T08:53:05;20.60;99.90
57892;DHT22;43708;48.828;9.166;2023-05-10T08:55:32;20.60;99.90
57892;DHT22;43708;48.828;9.166;2023-05-10T08:57:59;20.60;99.90
57892;DHT22;43708;48.828;9.166;2023-05-10T09:00:25;20.60;99.90
57892;DHT22;43708;48.828;9.166;2023-05-10T09:02:51;20.60;99.80
57892;DHT22;43708;48.828;9.166;2023-05-10T09:05:17;20.60;99.70
57892;DHT22;43708;48.828;9.166;2023-05-10T09:07:43;20.60;99.70
57892;DHT22;43708;48.828;9.166;2023-05-10T09:10:10;20.60;99.60
57892;DHT22;43708;48.828;9.166;2023-05-10T09:12:37;20.60;99.60
57892;DHT22;43708;48.828;9.166;2023-05-10T09:15:04;20.60;99.50
57892;DHT22;43708;48.828;9.166;2023-05-10T09:17:30;20.60;99.50
57892;DHT22;43708;48.828;9.166;2023-05-10T09:20:00;20.60;99.50
57892;DHT22;43708;48.828;9.166;2023-05-10T09:22:26;20.60;99.40
57892;DHT22;43708;48.828;9.166;2023-05-10T09:25:15;20.60;99.30
57892;DHT22;43708;48.828;9.166;2023-05-10T09:27:44;20.70;99.30
57892;DHT22;43708;48.828;9.166;2023-05-10T09:30:11;20.80;99.30
57892;DHT22;43708;48.828;9.166;2023-05-10T09:32:47;20.80;99.20
57892;DHT22;43708;48.828;9.166;2023-05-10T09:35:13;20.90;99.20
57892;DHT22;43708;48.828;9.166;2023-05-10T09:37:41;20.90;99.20
57892;DHT22;43708;48.828;9.166;2023-05-10T09:40:08;21.00;99.10
57892;DHT22;43708;48.828;9.166;2023-05-10T09:42:36;21.00;99.10
57892;DHT22;43708;48.828;9.166;2023-05-10T09:45:05;21.00;99.10
57892;DHT22;43708;48.828;9.166;2023-05-10T09:47:33;21.00;99.10
57892;DHT22;43708;48.828;9.166;2023-05-10T09:49:59;21.10;99.10
57892;DHT22;43708;48.828;9.166;2023-05-10T09:55:13;21.10;99.10
57892;DHT22;43708;48.828;9.166;2023-05-10T09:57:39;21.10;99.10
57892;DHT22;43708;48.828;9.166;2023-05-10T10:00:06;21.10;99.10
57892;DHT22;43708;48.828;9.166;2023-05-10T10:02:32;21.10;99.10
57892;DHT22;43708;48.828;9.166;2023-05-10T10:05:00;21.10;99.00
57892;DHT22;43708;48.828;9.166;2023-05-10T10:07:26;21.10;99.00
57892;DHT22;43708;48.828;9.166;2023-05-10T10:09:53;21.00;98.90
57892;DHT22;43708;48.828;9.166;2023-05-10T10:12:19;21.00;98.90
57892;DHT22;43708;48.828;9.166;2023-05-10T10:14:46;21.00;98.90
57892;DHT22;43708;48.828;9.166;2023-05-10T10:17:13;21.10;98.90
57892;DHT22;43708;48.828;9.166;2023-05-10T10:19:38;21.10;98.90
57892;DHT22;43708;48.828;9.166;2023-05-10T10:22:04;21.00;98.90
57892;DHT22;43708;48.828;9.166;2023-05-10T10:24:31;21.10;98.90
57892;DHT22;43708;48.828;9.166;2023-05-10T10:27:11;21.10;98.90
57892;DHT22;43708;48.828;9.166;2023-05-10T10:35:29;21.20;98.60
57892;DHT22;43708;48.828;9.166;2023-05-10T10:37:57;21.20;98.60
57892;DHT22;43708;48.828;9.166;2023-05-10T10:40:30;21.20;98.60
57892;DHT22;43708;48.828;9.166;2023-05-10T10:42:57;21.20;98.60
57892;DHT22;43708;48.828;9.166;2023-05-10T10:45:24;21.10;98.40
57892;DHT22;43708;48.828;9.166;2023-05-10T10:48:21;20.90;98.50
57892;DHT22;43708;48.828;9.166;2023-05-10T10:50:47;20.80;98.50
57892;DHT22;43708;48.828;9.166;2023-05-10T10:53:13;20.70;98.50
57892;DHT22;43708;48.828;9.166;2023-05-10T10:55:48;20.60;98.50
57892;DHT22;43708;48.828;9.166;2023-05-10T10:58:30;20.60;98.50
57892;DHT22;43708;48.828;9.166;2023-05-10T11:01:15;20.60;98.40
57892;DHT22;43708;48.828;9.166;2023-05-10T11:04:39;20.50;98.40
57892;DHT22;43708;48.828;9.166;2023-05-10T11:06:40;20.50;98.40
57892;DHT22;43708;48.828;9.166;2023-05-10T11:09:07;20.60;98.40
57892;DHT22;43708;48.828;9.166;2023-05-10T11:11:35;20.60;98.30
57892;DHT22;43708;48.828;9.166;2023-05-10T11:14:05;20.60;98.20
57892;DHT22;43708;48.828;9.166;2023-05-10T11:16:43;20.60;98.20
57892;DHT22;43708;48.828;9.166;2023-05-10T11:19:11;20.70;98.20
57892;DHT22;43708;48.828;9.166;2023-05-10T11:21:51;20.80;98.10
57892;DHT22;43708;48.828;9.166;2023-05-10T11:24:19;20.80;98.00
57892;DHT22;43708;48.828;9.166;2023-05-10T11:26:45;20.90;98.00
57892;DHT22;43708;48.828;9.166;2023-05-10T11:29:13;20.90;97.90
57892;DHT22;43708;48.828;9.166;2023-05-10T11:31:46;20.90;97.90
57892;DHT22;43708;48.828;9.166;2023-05-10T11:34:26;20.90;97.80
57892;DHT22;43708;48.828;9.166;2023-05-10T11:36:53;21.00;97.90
57892;DHT22;43708;48.828;9.166;2023-05-10T11:39:20;21.00;97.80
57892;DHT22;43708;48.828;9.166;2023-05-10T11:41:48;21.00;97.80
57892;DHT22;43708;48.828;9.166;2023-05-10T11:44:14;21.00;97.80
57892;DHT22;43708;48.828;9.166;2023-05-10T11:46:39;21.00;97.70
57892;DHT22;43708;48.828;9.166;2023-05-10T11:49:07;21.00;97.60
57892;DHT22;43708;48.828;9.166;2023-05-10T11:51:34;20.90;97.60
57892;DHT22;43708;48.828;9.166;2023-05-10T11:54:09;20.90;97.60
57892;DHT22;43708;48.828;9.166;2023-05-10T11:56:36;20.80;97.50
57892;DHT22;43708;48.828;9.166;2023-05-10T11:59:01;20.80;97.40
57892;DHT22;43708;48.828;9.166;2023-05-10T12:01:28;20.80;97.40
57892;DHT22;43708;48.828;9.166;2023-05-10T12:03:56;20.80;97.30
57892;DHT22;43708;48.828;9.166;2023-05-10T12:06:30;20.80;97.20
57892;DHT22;43708;48.828;9.166;2023-05-10T12:08:56;20.80;97.10
57892;DHT22;43708;48.828;9.166;2023-05-10T12:11:25;20.80;96.90
57892;DHT22;43708;48.828;9.166;2023-05-10T12:13:52;20.90;96.90
57892;DHT22;43708;48.828;9.166;2023-05-10T12:16:29;20.90;96.80
57892;DHT22;43708;48.828;9.166;2023-05-10T12:18:59;21.00;96.80
57892;DHT22;43708;48.828;9.166;2023-05-10T12:21:25;21.00;96.70
57892;DHT22;43708;48.828;9.166;2023-05-10T12:23:53;21.00;96.60
57892;DHT22;43708;48.828;9.166;2023-05-10T12:26:22;21.10;96.60
57892;DHT22;43708;48.828;9.166;2023-05-10T12:28:47;21.10;96.60
57892;DHT22;43708;48.828;9.166;2023-05-10T12:31:13;21.10;96.50
57892;DHT22;43708;48.828;9.166;2023-05-10T12:33:40;21.10;96.50
57892;DHT22;43708;48.828;9.166;2023-05-10T12:36:08;21.10;96.50
57892;DHT22;43708;48.828;9.166;2023-05-10T12:38:38;21.10;96.40
57892;DHT22;43708;48.828;9.166;2023-05-10T12:41:06;21.10;96.40
57892;DHT22;43708;48.828;9.166;2023-05-10T12:43:33;21.10;96.40
57892;DHT22;43708;48.828;9.166;2023-05-10T12:46:04;21.10;96.40
57892;DHT22;43708;48.828;9.166;2023-05-10T12:48:29;21.10;96.40
57892;DHT22;43708;48.828;9.166;2023-05-10T12:50:56;21.10;96.40
57892;DHT22;43708;48.828;9.166;2023-05-10T12:53:22;21.10;96.70
57892;DHT22;43708;48.828;9.166;2023-05-10T12:55:47;21.10;96.40
57892;DHT22;43708;48.828;9.166;2023-05-10T12:58:14;21.10;96.40
57892;DHT22;43708;48.828;9.166;2023-05-10T13:00:39;21.00;96.30
57892;DHT22;43708;48.828;9.166;2023-05-10T13:03:05;21.00;96.30
57892;DHT22;43708;48.828;9.166;2023-05-10T13:05:33;21.00;96.30
57892;DHT22;43708;48.828;9.166;2023-05-10T13:07:59;21.10;96.30
57892;DHT22;43708;48.828;9.166;2023-05-10T13:10:25;21.10;96.30
57892;DHT22;43708;48.828;9.166;2023-05-10T13:12:50;21.10;96.20
57892;DHT22;43708;48.828;9.166;2023-05-10T13:15:16;21.10;96.20
57892;DHT22;43708;48.828;9.166;2023-05-10T13:17:42;21.20;96.30
57892;DHT22;43708;48.828;9.166;2023-05-10T13:20:08;21.20;96.30
57892;DHT22;43708;48.828;9.166;2023-05-10T13:22:37;21.10;96.20
57892;DHT22;43708;48.828;9.166;2023-05-10T13:25:03;21.10;96.20
57892;DHT22;43708;48.828;9.166;2023-05-10T13:27:28;21.10;96.20
57892;DHT22;43708;48.828;9.166;2023-05-10T13:29:54;21.10;96.20
57892;DHT22;43708;48.828;9.166;2023-05-10T13:32:20;21.10;96.20
57892;DHT22;43708;48.828;9.166;2023-05-10T13:34:46;21.20;96.10
57892;DHT22;43708;48.828;9.166;2023-05-10T13:37:11;21.20;96.10
57892;DHT22;43708;48.828;9.166;2023-05-10T13:39:37;21.20;96.00
57892;DHT22;43708;48.828;9.166;2023-05-10T13:42:03;21.20;96.00
57892;DHT22;43708;48.828;9.166;2023-05-10T13:44:29;21.20;96.00
57892;DHT22;43708;48.828;9.166;2023-05-10T13:46:56;21.20;96.00
57892;DHT22;43708;48.828;9.166;2023-05-10T13:49:22;21.20;95.90
57892;DHT22;43708;48.828;9.166;2023-05-10T13:51:47;21.20;95.90
57892;DHT22;43708;48.828;9.166;2023-05-10T13:54:13;21.20;95.90
57892;DHT22;43708;48.828;9.166;2023-05-10T13:56:40;21.20;95.90
57892;DHT22;43708;48.828;9.166;2023-05-10T13:59:06;21.20;95.80
57892;DHT22;43708;48.828;9.166;2023-05-10T14:01:33;21.30;95.80
57892;DHT22;43708;48.828;9.166;2023-05-10T14:03:59;21.30;95.70
57892;DHT22;43708;48.828;9.166;2023-05-10T14:06:25;21.20;95.70
57892;DHT22;43708;48.828;9.166;2023-05-10T14:08:52;21.30;95.60
57892;DHT22;43708;48.828;9.166;2023-05-10T14:11:18;21.30;95.60
57892;DHT22;43708;48.828;9.166;2023-05-10T14:13:43;21.30;95.50
57892;DHT22;43708;48.828;9.166;2023-05-10T14:16:09;21.30;95.50
57892;DHT22;43708;48.828;9.166;2023-05-10T14:18:35;21.30;95.40
57892;DHT22;43708;48.828;9.166;2023-05-10T14:21:02;21.30;95.30
57892;DHT22;43708;48.828;9.166;2023-05-10T14:23:27;21.30;95.20
57892;DHT22;43708;48.828;9.166;2023-05-10T14:25:54;21.30;95.20
57892;DHT22;43708;48.828;9.166;2023-05-10T14:28:20;21.30;95.10
57892;DHT22;43708;48.828;9.166;2023-05-10T14:30:46;21.30;95.00
57892;DHT22;43708;48.828;9.166;2023-05-10T14:33:12;21.30;94.90
57892;DHT22;43708;48.828;9.166;2023-05-10T14:35:38;21.20;94.90
57892;DHT22;43708;48.828;9.166;2023-05-10T14:38:04;21.20;94.80
57892;DHT22;43708;48.828;9.166;2023-05-10T14:40:30;21.20;94.80
57892;DHT22;43708;48.828;9.166;2023-05-10T14:42:55;21.20;94.70
57892;DHT22;43708;48.828;9.166;2023-05-10T14:45:21;21.20;94.60
57892;DHT22;43708;48.828;9.166;2023-05-10T14:47:48;21.10;94.50
57892;DHT22;43708;48.828;9.166;2023-05-10T14:50:14;21.20;94.50
57892;DHT22;43708;48.828;9.166;2023-05-10T14:52:39;21.20;94.40
57892;DHT22;43708;48.828;9.166;2023-05-10T14:55:05;21.20;94.30
57892;DHT22;43708;48.828;9.166;2023-05-10T14:57:31;21.20;94.20
57892;DHT22;43708;48.828;9.166;2023-05-10T14:59:57;21.10;94.20
57892;DHT22;43708;48.828;9.166;2023-05-10T15:02:23;21.20;94.10
57892;DHT22;43708;48.828;9.166;2023-05-10T15:04:48;21.20;94.10
57892;DHT22;43708;48.828;9.166;2023-05-10T15:07:14;21.20;94.00
57892;DHT22;43708;48.828;9.166;2023-05-10T15:09:41;21.20;93.90
57892;DHT22;43708;48.828;9.166;2023-05-10T15:12:07;21.20;93.90
57892;DHT22;43708;48.828;9.166;2023-05-10T15:14:32;21.20;94.20
57892;DHT22;43708;48.828;9.166;2023-05-10T15:16:59;21.20;93.80
57892;DHT22;43708;48.828;9.166;2023-05-10T15:19:24;21.20;93.70
57892;DHT22;43708;48.828;9.166;2023-05-10T15:21:50;21.20;93.70
57892;DHT22;43708;48.828;9.166;2023-05-10T15:24:15;21.20;93.60
57892;DHT22;43708;48.828;9.166;2023-05-10T15:26:41;21.20;93.60
57892;DHT22;43708;48.828;9.166;2023-05-10T15:29:07;21.20;93.60
57892;DHT22;43708;48.828;9.166;2023-05-10T15:31:33;21.10;93.40
57892;DHT22;43708;48.828;9.166;2023-05-10T15:34:01;21.10;93.40
57892;DHT22;43708;48.828;9.166;2023-05-10T15:36:26;21.20;93.40
57892;DHT22;43708;48.828;9.166;2023-05-10T15:38:53;21.20;93.40
57892;DHT22;43708;48.828;9.166;2023-05-10T15:41:19;21.20;93.30
57892;DHT22;43708;48.828;9.166;2023-05-10T15:43:44;21.20;93.20
57892;DHT22;43708;48.828;9.166;2023-05-10T15:46:10;21.20;93.20
57892;DHT22;43708;48.828;9.166;2023-05-10T15:48:36;21.10;93.20
57892;DHT22;43708;48.828;9.166;2023-05-10T15:51:02;21.10;93.10